CheckWX is a tool to help pilots better visualize weather data.  It is not intended as a substitute for an official pre-flight weather briefing.

12:25:44 UTC

KRBG METAR
Roseburg Regional Airport
Roseburg, Oregon, USA
Current

33 mins ago

KRBG 221153Z AUTO 00000KT 9SM FEW003 M01/M02 A3015 RMK AO2 SLP214 T10111022 10006 21011 50003
Observed
Feb-22 @ 11:53 UTC
Visibility
9 SM
Flight Rules
VFR
Cloud Levels
  • Few at 300' AGL
Temperature
-1°C / 30°F
Dewpoint
-2°C / 28°F
Humidity
93%
Altimeter
30.15" Hg
Pressure
1021.4 hPa
Previous

40 mins ago

KRBG 221146Z AUTO 00000KT 9SM SCT003 M01/M02 A3015 RMK AO2 T10111022
Observed
Feb-22 @ 11:46 UTC
Visibility
9 SM
Flight Rules
VFR
Cloud Levels
  • Scattered at 300' AGL
Temperature
-1°C / 30°F
Dewpoint
-2°C / 28°F
Humidity
93%
Altimeter
30.15" Hg
Pressure
1021.02 hPa
Previous

1 hour ago

KRBG 221115Z AUTO 00000KT 10SM BKN004 M01/M03 A3016 RMK AO2 T10111028
Observed
Feb-22 @ 11:15 UTC
Visibility
10 SM
Flight Rules
LIFR
Cloud Levels
  • Broken at 400' AGL
Temperature
-1°C / 30°F
Dewpoint
-3°C / 27°F
Humidity
86%
Altimeter
30.16" Hg
Pressure
1021.32 hPa